sensor_id;sensor_type;location;lat;lon;timestamp;P1;durP1;ratioP1;P2;durP2;ratioP2
14872;SDS011;7528;48.576;19.122;2022-10-16T00:01:58;16.42;;;14.15;;
14872;SDS011;7528;48.576;19.122;2022-10-16T00:07:00;14.85;;;13.32;;
14872;SDS011;7528;48.576;19.122;2022-10-16T00:12:03;16.52;;;13.45;;
14872;SDS011;7528;48.576;19.122;2022-10-16T00:17:08;14.45;;;13.00;;
14872;SDS011;7528;48.576;19.122;2022-10-16T00:22:10;16.60;;;13.13;;
14872;SDS011;7528;48.576;19.122;2022-10-16T00:27:13;16.27;;;13.68;;
14872;SDS011;7528;48.576;19.122;2022-10-16T00:32:17;13.48;;;12.18;;
14872;SDS011;7528;48.576;19.122;2022-10-16T00:37:20;15.93;;;12.77;;
14872;SDS011;7528;48.576;19.122;2022-10-16T00:42:22;16.33;;;13.75;;
14872;SDS011;7528;48.576;19.122;2022-10-16T00:47:27;19.20;;;14.18;;
14872;SDS011;7528;48.576;19.122;2022-10-16T00:52:33;14.48;;;12.95;;
14872;SDS011;7528;48.576;19.122;2022-10-16T00:57:36;14.00;;;12.23;;
14872;SDS011;7528;48.576;19.122;2022-10-16T01:02:40;15.75;;;13.45;;
14872;SDS011;7528;48.576;19.122;2022-10-16T01:07:44;14.82;;;13.35;;
14872;SDS011;7528;48.576;19.122;2022-10-16T01:12:56;14.65;;;11.95;;
14872;SDS011;7528;48.576;19.122;2022-10-16T01:18:05;13.27;;;11.98;;
14872;SDS011;7528;48.576;19.122;2022-10-16T01:23:15;13.20;;;11.80;;
14872;SDS011;7528;48.576;19.122;2022-10-16T01:28:25;13.32;;;11.98;;
14872;SDS011;7528;48.576;19.122;2022-10-16T01:33:36;14.07;;;12.10;;
14872;SDS011;7528;48.576;19.122;2022-10-16T01:38:44;16.77;;;13.13;;
14872;SDS011;7528;48.576;19.122;2022-10-16T01:43:53;14.35;;;12.85;;
14872;SDS011;7528;48.576;19.122;2022-10-16T01:49:00;16.85;;;13.10;;
14872;SDS011;7528;48.576;19.122;2022-10-16T01:54:05;14.65;;;12.57;;
14872;SDS011;7528;48.576;19.122;2022-10-16T01:59:11;13.75;;;12.32;;
14872;SDS011;7528;48.576;19.122;2022-10-16T02:04:18;14.13;;;12.60;;
14872;SDS011;7528;48.576;19.122;2022-10-16T02:09:24;14.88;;;13.43;;
14872;SDS011;7528;48.576;19.122;2022-10-16T02:14:28;14.27;;;12.88;;
14872;SDS011;7528;48.576;19.122;2022-10-16T02:19:31;14.80;;;13.18;;
14872;SDS011;7528;48.576;19.122;2022-10-16T02:24:35;16.30;;;12.60;;
14872;SDS011;7528;48.576;19.122;2022-10-16T02:29:45;15.73;;;12.18;;
14872;SDS011;7528;48.576;19.122;2022-10-16T02:34:51;13.82;;;12.00;;
14872;SDS011;7528;48.576;19.122;2022-10-16T02:39:54;14.02;;;12.60;;
14872;SDS011;7528;48.576;19.122;2022-10-16T02:44:58;13.98;;;12.30;;
14872;SDS011;7528;48.576;19.122;2022-10-16T02:50:01;14.70;;;12.98;;
14872;SDS011;7528;48.576;19.122;2022-10-16T02:55:04;16.08;;;12.45;;
14872;SDS011;7528;48.576;19.122;2022-10-16T03:00:10;14.70;;;12.95;;
14872;SDS011;7528;48.576;19.122;2022-10-16T03:05:15;15.90;;;11.98;;
14872;SDS011;7528;48.576;19.122;2022-10-16T03:10:17;14.27;;;12.48;;
14872;SDS011;7528;48.576;19.122;2022-10-16T03:15:21;16.75;;;12.77;;
14872;SDS011;7528;48.576;19.122;2022-10-16T03:20:24;13.80;;;12.40;;
14872;SDS011;7528;48.576;19.122;2022-10-16T03:25:26;13.38;;;11.77;;
14872;SDS011;7528;48.576;19.122;2022-10-16T03:30:30;12.85;;;11.52;;
14872;SDS011;7528;48.576;19.122;2022-10-16T03:35:33;16.27;;;12.27;;
14872;SDS011;7528;48.576;19.122;2022-10-16T03:40:35;14.43;;;12.30;;
14872;SDS011;7528;48.576;19.122;2022-10-16T03:45:39;15.98;;;12.32;;
14872;SDS011;7528;48.576;19.122;2022-10-16T03:50:41;13.77;;;11.95;;
14872;SDS011;7528;48.576;19.122;2022-10-16T03:55:44;12.98;;;11.38;;
14872;SDS011;7528;48.576;19.122;2022-10-16T04:00:48;14.05;;;11.75;;
14872;SDS011;7528;48.576;19.122;2022-10-16T04:05:50;14.05;;;12.73;;
14872;SDS011;7528;48.576;19.122;2022-10-16T04:10:53;18.08;;;13.07;;
14872;SDS011;7528;48.576;19.122;2022-10-16T04:15:56;18.02;;;13.30;;
14872;SDS011;7528;48.576;19.122;2022-10-16T04:21:01;13.80;;;12.40;;
14872;SDS011;7528;48.576;19.122;2022-10-16T04:26:04;19.38;;;14.20;;
14872;SDS011;7528;48.576;19.122;2022-10-16T04:31:08;15.18;;;13.15;;
14872;SDS011;7528;48.576;19.122;2022-10-16T04:36:11;14.73;;;12.70;;
14872;SDS011;7528;48.576;19.122;2022-10-16T04:41:14;14.52;;;13.13;;
14872;SDS011;7528;48.576;19.122;2022-10-16T04:46:18;14.15;;;12.68;;
14872;SDS011;7528;48.576;19.122;2022-10-16T04:51:20;18.25;;;13.05;;
14872;SDS011;7528;48.576;19.122;2022-10-16T04:56:22;13.15;;;11.75;;
14872;SDS011;7528;48.576;19.122;2022-10-16T05:01:26;15.52;;;12.80;;
14872;SDS011;7528;48.576;19.122;2022-10-16T05:06:29;14.35;;;12.85;;
14872;SDS011;7528;48.576;19.122;2022-10-16T05:11:31;15.57;;;12.95;;
14872;SDS011;7528;48.576;19.122;2022-10-16T05:16:35;17.25;;;14.10;;
14872;SDS011;7528;48.576;19.122;2022-10-16T05:21:38;16.50;;;13.13;;
14872;SDS011;7528;48.576;19.122;2022-10-16T05:26:40;13.73;;;12.35;;
14872;SDS011;7528;48.576;19.122;2022-10-16T05:31:44;17.67;;;14.27;;
14872;SDS011;7528;48.576;19.122;2022-10-16T05:36:46;16.17;;;14.30;;
14872;SDS011;7528;48.576;19.122;2022-10-16T05:41:49;14.93;;;12.80;;
14872;SDS011;7528;48.576;19.122;2022-10-16T05:46:54;17.42;;;14.45;;
14872;SDS011;7528;48.576;19.122;2022-10-16T05:51:56;22.25;;;19.63;;
14872;SDS011;7528;48.576;19.122;2022-10-16T05:56:59;21.55;;;15.73;;
14872;SDS011;7528;48.576;19.122;2022-10-16T06:02:03;19.67;;;17.58;;
14872;SDS011;7528;48.576;19.122;2022-10-16T06:07:06;19.40;;;17.50;;
14872;SDS011;7528;48.576;19.122;2022-10-16T06:12:08;18.23;;;13.60;;
14872;SDS011;7528;48.576;19.122;2022-10-16T06:17:12;14.15;;;12.70;;
14872;SDS011;7528;48.576;19.122;2022-10-16T06:22:15;14.52;;;12.93;;
14872;SDS011;7528;48.576;19.122;2022-10-16T06:27:18;13.68;;;12.35;;
14872;SDS011;7528;48.576;19.122;2022-10-16T06:32:22;18.80;;;13.02;;
14872;SDS011;7528;48.576;19.122;2022-10-16T06:37:25;14.90;;;13.40;;
14872;SDS011;7528;48.576;19.122;2022-10-16T06:42:28;13.90;;;12.48;;
14872;SDS011;7528;48.576;19.122;2022-10-16T06:47:32;15.93;;;13.52;;
14872;SDS011;7528;48.576;19.122;2022-10-16T06:52:34;15.32;;;13.82;;
14872;SDS011;7528;48.576;19.122;2022-10-16T06:57:37;15.48;;;13.93;;
14872;SDS011;7528;48.576;19.122;2022-10-16T07:02:41;13.50;;;12.10;;
14872;SDS011;7528;48.576;19.122;2022-10-16T07:07:43;16.48;;;13.27;;
14872;SDS011;7528;48.576;19.122;2022-10-16T07:12:46;15.15;;;13.65;;
14872;SDS011;7528;48.576;19.122;2022-10-16T07:17:49;13.43;;;12.18;;
14872;SDS011;7528;48.576;19.122;2022-10-16T07:22:52;18.17;;;13.45;;
14872;SDS011;7528;48.576;19.122;2022-10-16T07:27:54;14.23;;;12.85;;
14872;SDS011;7528;48.576;19.122;2022-10-16T07:32:58;13.93;;;12.43;;
14872;SDS011;7528;48.576;19.122;2022-10-16T07:38:01;13.18;;;11.75;;
14872;SDS011;7528;48.576;19.122;2022-10-16T07:43:03;12.95;;;11.50;;
14872;SDS011;7528;48.576;19.122;2022-10-16T07:48:07;14.02;;;11.23;;
14872;SDS011;7528;48.576;19.122;2022-10-16T07:53:10;13.98;;;10.00;;
14872;SDS011;7528;48.576;19.122;2022-10-16T07:58:12;11.57;;;10.48;;
14872;SDS011;7528;48.576;19.122;2022-10-16T08:03:16;14.85;;;9.45;;
14872;SDS011;7528;48.576;19.122;2022-10-16T08:08:19;12.55;;;9.68;;
14872;SDS011;7528;48.576;19.122;2022-10-16T08:13:22;11.02;;;8.65;;
14872;SDS011;7528;48.576;19.122;2022-10-16T08:18:26;9.07;;;7.80;;
14872;SDS011;7528;48.576;19.122;2022-10-16T08:23:28;9.13;;;8.20;;
14872;SDS011;7528;48.576;19.122;2022-10-16T08:28:31;11.45;;;8.85;;
14872;SDS011;7528;48.576;19.122;2022-10-16T08:33:35;9.80;;;8.80;;
14872;SDS011;7528;48.576;19.122;2022-10-16T08:38:38;10.63;;;8.95;;
14872;SDS011;7528;48.576;19.122;2022-10-16T08:43:47;11.55;;;8.25;;
14872;SDS011;7528;48.576;19.122;2022-10-16T08:49:09;12.30;;;8.68;;
14872;SDS011;7528;48.576;19.122;2022-10-16T08:54:18;12.30;;;9.00;;
14872;SDS011;7528;48.576;19.122;2022-10-16T08:59:27;10.23;;;8.98;;
14872;SDS011;7528;48.576;19.122;2022-10-16T09:04:53;11.32;;;10.18;;
14872;SDS011;7528;48.576;19.122;2022-10-16T09:10:08;12.93;;;9.85;;
14872;SDS011;7528;48.576;19.122;2022-10-16T09:15:24;9.35;;;8.48;;
14872;SDS011;7528;48.576;19.122;2022-10-16T09:20:37;9.43;;;8.50;;
14872;SDS011;7528;48.576;19.122;2022-10-16T09:25:47;9.75;;;8.75;;
14872;SDS011;7528;48.576;19.122;2022-10-16T09:30:50;9.60;;;8.43;;
14872;SDS011;7528;48.576;19.122;2022-10-16T09:35:56;12.18;;;8.63;;
14872;SDS011;7528;48.576;19.122;2022-10-16T09:41:00;9.57;;;8.30;;
14872;SDS011;7528;48.576;19.122;2022-10-16T09:46:04;10.23;;;9.15;;
14872;SDS011;7528;48.576;19.122;2022-10-16T09:51:16;11.35;;;8.20;;
14872;SDS011;7528;48.576;19.122;2022-10-16T09:56:23;8.75;;;7.47;;
14872;SDS011;7528;48.576;19.122;2022-10-16T10:01:29;9.70;;;7.60;;
14872;SDS011;7528;48.576;19.122;2022-10-16T10:06:35;10.57;;;8.23;;
14872;SDS011;7528;48.576;19.122;2022-10-16T10:11:43;11.95;;;7.80;;
14872;SDS011;7528;48.576;19.122;2022-10-16T10:16:51;10.25;;;8.07;;
14872;SDS011;7528;48.576;19.122;2022-10-16T10:21:55;23.33;;;9.40;;
14872;SDS011;7528;48.576;19.122;2022-10-16T10:27:00;28.58;;;10.13;;
14872;SDS011;7528;48.576;19.122;2022-10-16T10:32:09;10.48;;;7.35;;
14872;SDS011;7528;48.576;19.122;2022-10-16T10:37:28;8.60;;;7.68;;
14872;SDS011;7528;48.576;19.122;2022-10-16T10:42:40;7.90;;;7.10;;
14872;SDS011;7528;48.576;19.122;2022-10-16T10:48:05;8.80;;;7.47;;
14872;SDS011;7528;48.576;19.122;2022-10-16T10:53:21;8.57;;;6.70;;
14872;SDS011;7528;48.576;19.122;2022-10-16T10:58:39;9.18;;;7.45;;
14872;SDS011;7528;48.576;19.122;2022-10-16T11:04:01;9.32;;;7.18;;
14872;SDS011;7528;48.576;19.122;2022-10-16T11:09:30;9.30;;;6.55;;
14872;SDS011;7528;48.576;19.122;2022-10-16T11:14:39;7.85;;;6.50;;
14872;SDS011;7528;48.576;19.122;2022-10-16T11:19:45;8.27;;;7.30;;
14872;SDS011;7528;48.576;19.122;2022-10-16T11:24:53;7.75;;;6.97;;
14872;SDS011;7528;48.576;19.122;2022-10-16T11:30:11;7.75;;;6.97;;
14872;SDS011;7528;48.576;19.122;2022-10-16T11:35:19;8.35;;;6.80;;
14872;SDS011;7528;48.576;19.122;2022-10-16T11:40:28;8.98;;;6.57;;
14872;SDS011;7528;48.576;19.122;2022-10-16T11:45:34;7.43;;;6.65;;
14872;SDS011;7528;48.576;19.122;2022-10-16T11:50:43;8.52;;;6.55;;
14872;SDS011;7528;48.576;19.122;2022-10-16T11:55:51;10.27;;;6.47;;
14872;SDS011;7528;48.576;19.122;2022-10-16T12:00:56;14.90;;;7.38;;
14872;SDS011;7528;48.576;19.122;2022-10-16T12:06:11;6.85;;;6.15;;
14872;SDS011;7528;48.576;19.122;2022-10-16T12:11:24;8.93;;;6.63;;
14872;SDS011;7528;48.576;19.122;2022-10-16T12:16:36;8.73;;;6.43;;
14872;SDS011;7528;48.576;19.122;2022-10-16T12:21:39;8.63;;;6.50;;
14872;SDS011;7528;48.576;19.122;2022-10-16T12:26:52;9.15;;;6.60;;
14872;SDS011;7528;48.576;19.122;2022-10-16T12:31:54;11.88;;;7.28;;
14872;SDS011;7528;48.576;19.122;2022-10-16T12:37:07;9.65;;;6.28;;
14872;SDS011;7528;48.576;19.122;2022-10-16T12:47:38;8.32;;;6.55;;
14872;SDS011;7528;48.576;19.122;2022-10-16T12:52:50;8.52;;;6.40;;
14872;SDS011;7528;48.576;19.122;2022-10-16T12:58:03;7.65;;;6.65;;
14872;SDS011;7528;48.576;19.122;2022-10-16T13:03:20;9.20;;;6.13;;
14872;SDS011;7528;48.576;19.122;2022-10-16T13:08:41;6.40;;;5.80;;
14872;SDS011;7528;48.576;19.122;2022-10-16T13:14:09;7.78;;;5.57;;
14872;SDS011;7528;48.576;19.122;2022-10-16T13:19:24;6.47;;;5.53;;
14872;SDS011;7528;48.576;19.122;2022-10-16T13:24:49;6.45;;;5.65;;
14872;SDS011;7528;48.576;19.122;2022-10-16T13:30:08;7.90;;;5.70;;
14872;SDS011;7528;48.576;19.122;2022-10-16T13:35:18;11.40;;;5.97;;
14872;SDS011;7528;48.576;19.122;2022-10-16T13:40:26;7.93;;;6.18;;
14872;SDS011;7528;48.576;19.122;2022-10-16T13:45:29;6.10;;;5.60;;
14872;SDS011;7528;48.576;19.122;2022-10-16T13:50:32;7.85;;;5.68;;
14872;SDS011;7528;48.576;19.122;2022-10-16T13:55:34;6.65;;;5.43;;
14872;SDS011;7528;48.576;19.122;2022-10-16T14:00:38;5.63;;;5.13;;
14872;SDS011;7528;48.576;19.122;2022-10-16T14:05:43;7.53;;;5.95;;
14872;SDS011;7528;48.576;19.122;2022-10-16T14:10:49;6.55;;;5.47;;
14872;SDS011;7528;48.576;19.122;2022-10-16T14:15:54;6.45;;;5.45;;
14872;SDS011;7528;48.576;19.122;2022-10-16T14:21:02;9.23;;;5.72;;
14872;SDS011;7528;48.576;19.122;2022-10-16T14:26:12;14.13;;;10.05;;
14872;SDS011;7528;48.576;19.122;2022-10-16T14:31:25;33.55;;;27.00;;
14872;SDS011;7528;48.576;19.122;2022-10-16T14:36:30;7.43;;;5.63;;
14872;SDS011;7528;48.576;19.122;2022-10-16T14:41:33;7.57;;;6.13;;
14872;SDS011;7528;48.576;19.122;2022-10-16T14:46:46;8.10;;;6.35;;
14872;SDS011;7528;48.576;19.122;2022-10-16T14:51:49;8.10;;;6.25;;
14872;SDS011;7528;48.576;19.122;2022-10-16T14:56:53;8.25;;;7.32;;
14872;SDS011;7528;48.576;19.122;2022-10-16T15:01:59;9.40;;;7.82;;
14872;SDS011;7528;48.576;19.122;2022-10-16T15:07:02;8.85;;;7.72;;
14872;SDS011;7528;48.576;19.122;2022-10-16T15:12:04;13.68;;;11.40;;
14872;SDS011;7528;48.576;19.122;2022-10-16T15:17:09;15.75;;;11.88;;
14872;SDS011;7528;48.576;19.122;2022-10-16T15:22:12;19.10;;;17.08;;
14872;SDS011;7528;48.576;19.122;2022-10-16T15:27:14;23.25;;;18.27;;
14872;SDS011;7528;48.576;19.122;2022-10-16T15:32:18;18.63;;;16.50;;
14872;SDS011;7528;48.576;19.122;2022-10-16T15:37:21;27.55;;;22.55;;
14872;SDS011;7528;48.576;19.122;2022-10-16T15:42:23;7.90;;;6.95;;
14872;SDS011;7528;48.576;19.122;2022-10-16T15:47:27;12.45;;;7.25;;
14872;SDS011;7528;48.576;19.122;2022-10-16T15:52:29;12.25;;;10.57;;
14872;SDS011;7528;48.576;19.122;2022-10-16T15:57:32;11.85;;;9.27;;
14872;SDS011;7528;48.576;19.122;2022-10-16T16:02:36;14.75;;;13.27;;
14872;SDS011;7528;48.576;19.122;2022-10-16T16:07:38;11.23;;;9.30;;
14872;SDS011;7528;48.576;19.122;2022-10-16T16:12:41;8.55;;;7.68;;
14872;SDS011;7528;48.576;19.122;2022-10-16T16:17:45;7.50;;;6.78;;
14872;SDS011;7528;48.576;19.122;2022-10-16T16:22:48;8.73;;;7.82;;
14872;SDS011;7528;48.576;19.122;2022-10-16T16:27:51;12.43;;;10.25;;
14872;SDS011;7528;48.576;19.122;2022-10-16T16:32:54;12.52;;;10.65;;
14872;SDS011;7528;48.576;19.122;2022-10-16T16:37:57;10.38;;;9.15;;
14872;SDS011;7528;48.576;19.122;2022-10-16T16:42:59;9.73;;;8.07;;
14872;SDS011;7528;48.576;19.122;2022-10-16T16:48:04;11.85;;;7.93;;
14872;SDS011;7528;48.576;19.122;2022-10-16T16:53:07;8.95;;;8.05;;
14872;SDS011;7528;48.576;19.122;2022-10-16T16:58:09;12.65;;;9.40;;
14872;SDS011;7528;48.576;19.122;2022-10-16T17:03:13;11.65;;;9.27;;
14872;SDS011;7528;48.576;19.122;2022-10-16T17:08:16;11.80;;;9.88;;
14872;SDS011;7528;48.576;19.122;2022-10-16T17:13:18;11.90;;;10.68;;
14872;SDS011;7528;48.576;19.122;2022-10-16T17:18:22;12.30;;;10.18;;
14872;SDS011;7528;48.576;19.122;2022-10-16T17:23:25;16.70;;;13.18;;
14872;SDS011;7528;48.576;19.122;2022-10-16T17:28:28;16.17;;;13.90;;
14872;SDS011;7528;48.576;19.122;2022-10-16T17:33:31;10.98;;;9.43;;
14872;SDS011;7528;48.576;19.122;2022-10-16T17:38:34;11.77;;;10.00;;
14872;SDS011;7528;48.576;19.122;2022-10-16T17:43:36;15.00;;;10.68;;
14872;SDS011;7528;48.576;19.122;2022-10-16T17:48:41;14.98;;;12.40;;
14872;SDS011;7528;48.576;19.122;2022-10-16T17:53:47;14.45;;;11.85;;
14872;SDS011;7528;48.576;19.122;2022-10-16T17:58:50;21.33;;;14.98;;
14872;SDS011;7528;48.576;19.122;2022-10-16T18:03:56;17.20;;;13.98;;
14872;SDS011;7528;48.576;19.122;2022-10-16T18:08:59;12.43;;;11.13;;
14872;SDS011;7528;48.576;19.122;2022-10-16T18:14:02;15.55;;;10.68;;
14872;SDS011;7528;48.576;19.122;2022-10-16T18:19:07;14.85;;;12.13;;
14872;SDS011;7528;48.576;19.122;2022-10-16T18:24:10;16.17;;;13.75;;
14872;SDS011;7528;48.576;19.122;2022-10-16T18:29:13;15.13;;;11.57;;
14872;SDS011;7528;48.576;19.122;2022-10-16T18:34:18;16.77;;;12.85;;
14872;SDS011;7528;48.576;19.122;2022-10-16T18:39:21;19.42;;;14.32;;
14872;SDS011;7528;48.576;19.122;2022-10-16T18:44:24;20.35;;;17.15;;
14872;SDS011;7528;48.576;19.122;2022-10-16T18:49:28;21.90;;;18.42;;
14872;SDS011;7528;48.576;19.122;2022-10-16T18:54:30;20.30;;;17.95;;
14872;SDS011;7528;48.576;19.122;2022-10-16T18:59:33;18.67;;;16.52;;
14872;SDS011;7528;48.576;19.122;2022-10-16T19:04:37;20.60;;;17.83;;
14872;SDS011;7528;48.576;19.122;2022-10-16T19:09:39;22.40;;;19.70;;
14872;SDS011;7528;48.576;19.122;2022-10-16T19:14:42;22.92;;;20.52;;
14872;SDS011;7528;48.576;19.122;2022-10-16T19:19:46;21.30;;;18.65;;
14872;SDS011;7528;48.576;19.122;2022-10-16T19:24:48;17.45;;;15.50;;
14872;SDS011;7528;48.576;19.122;2022-10-16T19:29:50;22.03;;;17.07;;
14872;SDS011;7528;48.576;19.122;2022-10-16T19:34:54;14.85;;;13.07;;
14872;SDS011;7528;48.576;19.122;2022-10-16T19:39:57;21.83;;;17.55;;
14872;SDS011;7528;48.576;19.122;2022-10-16T19:44:59;19.63;;;17.38;;
14872;SDS011;7528;48.576;19.122;2022-10-16T19:50:04;22.65;;;20.25;;
14872;SDS011;7528;48.576;19.122;2022-10-16T19:55:09;22.23;;;19.85;;
14872;SDS011;7528;48.576;19.122;2022-10-16T20:00:12;19.33;;;17.35;;
14872;SDS011;7528;48.576;19.122;2022-10-16T20:05:16;15.18;;;13.40;;
14872;SDS011;7528;48.576;19.122;2022-10-16T20:10:18;18.37;;;16.47;;
14872;SDS011;7528;48.576;19.122;2022-10-16T20:15:21;25.93;;;17.30;;
14872;SDS011;7528;48.576;19.122;2022-10-16T20:20:25;19.43;;;17.43;;
14872;SDS011;7528;48.576;19.122;2022-10-16T20:25:27;40.17;;;32.20;;
14872;SDS011;7528;48.576;19.122;2022-10-16T20:30:32;28.60;;;24.93;;
14872;SDS011;7528;48.576;19.122;2022-10-16T20:35:36;30.90;;;25.23;;
14872;SDS011;7528;48.576;19.122;2022-10-16T20:40:40;69.33;;;54.17;;
14872;SDS011;7528;48.576;19.122;2022-10-16T20:45:44;33.87;;;27.63;;
14872;SDS011;7528;48.576;19.122;2022-10-16T20:50:48;21.63;;;18.80;;
14872;SDS011;7528;48.576;19.122;2022-10-16T20:55:50;19.03;;;17.00;;
14872;SDS011;7528;48.576;19.122;2022-10-16T21:00:53;25.30;;;20.50;;
14872;SDS011;7528;48.576;19.122;2022-10-16T21:05:56;20.67;;;18.17;;
14872;SDS011;7528;48.576;19.122;2022-10-16T21:10:59;23.37;;;18.80;;
14872;SDS011;7528;48.576;19.122;2022-10-16T21:16:01;23.33;;;17.67;;
14872;SDS011;7528;48.576;19.122;2022-10-16T21:21:05;19.97;;;16.90;;
14872;SDS011;7528;48.576;19.122;2022-10-16T21:26:08;19.73;;;17.63;;
14872;SDS011;7528;48.576;19.122;2022-10-16T21:31:11;22.80;;;18.33;;
14872;SDS011;7528;48.576;19.122;2022-10-16T21:36:17;26.33;;;20.70;;
14872;SDS011;7528;48.576;19.122;2022-10-16T21:41:21;21.13;;;18.90;;
14872;SDS011;7528;48.576;19.122;2022-10-16T21:46:25;16.73;;;15.10;;
14872;SDS011;7528;48.576;19.122;2022-10-16T21:51:32;15.67;;;14.07;;
14872;SDS011;7528;48.576;19.122;2022-10-16T21:56:36;18.47;;;14.73;;
14872;SDS011;7528;48.576;19.122;2022-10-16T22:01:39;19.57;;;15.00;;
14872;SDS011;7528;48.576;19.122;2022-10-16T22:06:43;18.00;;;16.10;;
14872;SDS011;7528;48.576;19.122;2022-10-16T22:11:46;17.37;;;15.03;;
14872;SDS011;7528;48.576;19.122;2022-10-16T22:16:50;21.63;;;17.93;;
14872;SDS011;7528;48.576;19.122;2022-10-16T22:21:53;21.83;;;17.53;;
14872;SDS011;7528;48.576;19.122;2022-10-16T22:26:56;23.27;;;17.43;;
14872;SDS011;7528;48.576;19.122;2022-10-16T22:31:59;19.07;;;16.37;;
14872;SDS011;7528;48.576;19.122;2022-10-16T22:37:03;20.17;;;16.07;;
14872;SDS011;7528;48.576;19.122;2022-10-16T22:42:05;22.20;;;16.77;;
14872;SDS011;7528;48.576;19.122;2022-10-16T22:47:07;22.20;;;16.63;;
14872;SDS011;7528;48.576;19.122;2022-10-16T22:52:11;37.03;;;25.13;;
14872;SDS011;7528;48.576;19.122;2022-10-16T22:57:14;28.63;;;22.43;;
14872;SDS011;7528;48.576;19.122;2022-10-16T23:02:16;25.30;;;20.30;;
14872;SDS011;7528;48.576;19.122;2022-10-16T23:07:20;21.33;;;18.67;;
14872;SDS011;7528;48.576;19.122;2022-10-16T23:12:23;21.23;;;16.57;;
14872;SDS011;7528;48.576;19.122;2022-10-16T23:17:26;21.57;;;18.13;;
14872;SDS011;7528;48.576;19.122;2022-10-16T23:22:30;40.67;;;36.57;;
14872;SDS011;7528;48.576;19.122;2022-10-16T23:27:32;28.10;;;24.83;;
14872;SDS011;7528;48.576;19.122;2022-10-16T23:32:34;27.17;;;18.33;;
14872;SDS011;7528;48.576;19.122;2022-10-16T23:37:38;20.37;;;16.27;;
14872;SDS011;7528;48.576;19.122;2022-10-16T23:42:41;19.30;;;17.27;;
14872;SDS011;7528;48.576;19.122;2022-10-16T23:47:43;25.60;;;18.43;;
14872;SDS011;7528;48.576;19.122;2022-10-16T23:52:47;23.67;;;21.17;;
14872;SDS011;7528;48.576;19.122;2022-10-16T23:57:49;26.33;;;23.63;;
